Date,TemperatureHighF,TemperatureAvgF,TemperatureLowF,DewpointHighF,DewpointAvgF,DewpointLowF,HumidityHigh,HumidityAvg,HumidityLow,PressureMaxIn,PressureMinIn,WindSpeedMaxMPH,WindSpeedAvgMPH,GustSpeedMaxMPH,PrecipitationSumIn
2012-1-1,75,66,32,22,10,5,45,14,7,0.00,40.00,0,0,0,0.00
2012-1-2,74,66,32,24,15,12,54,16,9,0.00,40.00,0,0,0,0.00
2012-1-3,80,60,28,25,17,10,63,26,7,0.00,40.00,0,0,0,0.00
2012-1-4,76,60,30,22,11,4,57,19,7,0.00,40.00,0,0,0,0.00
2012-1-5,76,57,28,30,16,11,65,26,9,0.00,40.00,0,0,0,0.00
2012-1-6,74,55,26,26,21,17,77,35,13,0.00,40.00,0,0,0,0.00
2012-1-7,70,51,24,28,15,2,84,29,14,0.00,40.00,0,0,0,0.00
2012-1-8,56,46,40,9,3,-4,26,18,9,0.00,40.00,0,0,0,0.00
2012-1-9,61,50,25,22,15,6,69,26,19,0.00,40.00,0,0,0,0.00
2012-1-10,69,48,23,24,21,16,80,39,16,0.00,40.00,0,0,0,0.00
2012-1-11,61,51,26,22,20,15,72,31,18,0.00,40.00,0,0,0,0.00
2012-1-12,64,50,36,22,7,-23,44,20,5,0.00,40.00,0,0,0,0.00
2012-1-13,60,47,35,-4,-15,-23,12,7,4,0.00,40.00,0,0,0,0.00
2012-1-14,60,47,32,9,-2,-16,35,14,7,0.00,40.00,0,0,0,0.00
2012-1-15,55,45,26,38,27,9,83,51,38,0.00,40.00,0,0,0,0.00
2012-1-16,45,36,30,39,34,29,99,90,63,0.00,40.00,0,0,0,0.00
2012-1-17,60,40,18,29,20,1,98,57,9,0.00,40.00,0,0,0,0.00
2012-1-18,68,46,17,19,11,-2,83,34,6,0.00,40.00,0,0,0,0.00
2012-1-19,69,48,21,16,10,-9,64,30,4,0.00,40.00,0,0,0,0.00
2012-1-20,65,52,26,38,28,12,87,45,22,0.00,40.00,0,0,0,0.00
2012-1-21,49,43,36,44,36,9,95,78,24,0.00,40.00,0,0,0,0.00
2012-1-22,59,39,24,30,23,8,96,59,15,0.00,40.00,0,0,0,0.00
2012-1-23,46,40,30,43,32,-18,99,79,6,0.00,40.00,0,0,0,0.00
2012-1-24,52,42,30,36,22,6,99,54,19,0.00,40.00,0,0,0,0.00
2012-1-25,66,53,41,30,26,13,54,36,26,0.00,40.00,0,0,0,0.00
2012-1-26,78,54,32,32,26,16,78,43,10,0.00,40.00,0,0,0,0.00
2012-1-27,56,50,37,30,23,4,71,36,19,0.00,40.00,0,0,0,0.00
2012-1-28,62,49,42,5,-10,-24,21,10,3,0.00,40.00,0,0,0,0.00
2012-1-29,69,49,25,12,-1,-23,56,16,4,0.00,40.00,0,0,0,0.00
2012-1-30,68,44,19,18,12,8,71,34,10,0.00,40.00,0,0,0,0.00
2012-1-31,66,44,22,17,10,-3,68,35,7,0.00,40.00,0,0,0,0.00
2012-2-1,67,44,23,34,22,13,80,49,17,0.00,40.00,0,0,0,0.00
2012-2-2,65,44,22,21,14,2,80,34,17,0.00,40.00,0,0,0,0.00
2012-2-3,56,41,23,11,6,1,48,25,13,0.00,40.00,0,0,0,0.00
2012-2-4,56,42,25,18,15,9,59,36,20,0.00,40.00,0,0,0,0.00
2012-2-5,61,44,23,19,16,12,69,37,16,0.00,40.00,0,0,0,0.00
2012-2-6,58,46,25,21,17,14,69,33,21,0.00,40.00,0,0,0,0.00
2012-2-7,52,43,34,33,17,9,78,36,24,0.00,40.00,0,0,0,0.00
2012-2-8,59,49,40,32,23,20,69,37,23,0.00,40.00,0,0,0,0.00
2012-2-9,71,56,29,29,22,18,73,32,15,0.00,40.00,0,0,0,0.00
2012-2-10,71,57,25,28,23,19,82,33,15,0.00,40.00,0,0,0,0.00
2012-2-11,55,43,25,37,32,22,97,70,41,0.00,40.00,0,0,0,0.00
2012-2-12,48,39,34,38,34,31,99,82,54,0.00,40.00,0,0,0,0.00
2012-2-13,48,37,31,38,34,26,99,87,57,0.00,40.00,0,0,0,0.00
2012-2-14,49,36,27,32,30,26,97,81,50,0.00,40.00,0,0,0,0.00
2012-2-15,41,35,30,33,32,29,98,89,67,0.00,40.00,0,0,0,0.00
2012-2-16,46,38,32,32,28,19,98,72,42,0.00,40.00,0,0,0,0.00
2012-2-17,66,45,25,24,17,8,90,36,12,0.00,40.00,0,0,0,0.00
2012-2-18,61,46,21,31,24,17,95,49,20,0.00,40.00,0,0,0,0.00
2012-2-19,52,40,30,35,31,27,96,74,42,0.00,40.00,0,0,0,0.00
2012-2-20,55,38,22,36,28,20,97,71,30,0.00,40.00,0,0,0,0.00
2012-2-21,60,46,30,28,19,14,93,37,16,0.00,40.00,0,0,0,0.00
2012-2-22,72,57,31,31,27,24,83,34,17,0.00,40.00,0,0,0,0.00
2012-2-23,75,57,26,28,17,12,86,25,9,0.00,40.00,0,0,0,0.00
2012-2-24,70,55,31,23,19,14,72,26,12,0.00,40.00,0,0,0,0.00
2012-2-25,67,54,29,33,26,21,93,41,18,0.00,40.00,0,0,0,0.00
2012-2-26,64,51,21,29,15,3,95,33,10,0.00,40.00,0,0,0,0.00
2012-2-27,44,35,27,31,29,24,96,79,51,0.00,40.00,0,0,0,0.00
2012-2-28,45,32,26,30,26,24,97,80,50,0.00,40.00,0,0,0,0.00
2012-2-29,50,38,21,35,29,12,96,74,21,0.00,40.00,0,0,0,0.00
2012-3-1,55,40,34,36,32,17,92,76,22,0.00,40.00,0,0,0,0.00
2012-3-2,50,40,29,32,7,-15,97,36,6,0.00,40.00,0,0,0,0.00
2012-3-3,63,53,36,14,5,-5,23,15,9,0.00,40.00,0,0,0,0.00
2012-3-4,75,57,31,21,14,7,65,22,7,0.00,40.00,0,0,0,0.00
2012-3-5,75,50,26,32,20,12,75,40,10,0.00,40.00,0,0,0,0.00
2012-3-6,60,44,29,33,25,5,92,53,13,0.00,40.00,0,0,0,0.00
2012-3-7,52,35,21,30,12,1,93,45,16,0.00,40.00,0,0,0,0.00
2012-3-10,70,57,21,20,14,9,73,23,10,0.00,40.00,0,0,0,0.00
2012-3-11,67,55,28,25,10,-4,71,23,6,0.00,40.00,0,0,0,0.00
2012-3-12,71,54,24,31,26,20,86,41,18,0.00,40.00,0,0,0,0.00
2012-3-13,66,51,23,38,29,21,96,50,21,0.00,40.00,0,0,0,0.00
2012-3-14,70,54,27,41,31,22,98,51,19,0.00,40.00,0,0,0,0.00
2012-3-15,74,54,27,42,34,23,98,55,16,0.00,40.00,0,0,0,0.00
2012-3-16,66,54,31,42,39,31,99,61,32,0.00,40.00,0,0,0,0.00
2012-3-17,49,40,30,43,35,26,95,85,73,0.00,40.00,0,0,0,0.00
2012-3-18,36,31,29,30,27,25,96,84,69,0.00,40.00,0,0,0,0.00
2012-3-19,47,34,27,28,25,20,96,70,37,0.00,40.00,0,0,0,0.00
2012-3-20,61,43,19,30,24,17,96,57,22,0.00,40.00,0,0,0,0.00
2012-3-21,70,53,27,34,31,26,97,52,25,0.00,40.00,0,0,0,0.00
2012-3-22,77,60,37,38,23,-100,87,32,20,0.00,40.00,0,-86,0,0.00
2012-3-23,70,56,29,41,35,28,98,54,22,0.00,40.00,0,0,0,0.00
2012-3-24,67,55,30,37,29,24,98,41,22,0.00,40.00,0,0,0,0.00
2012-3-25,61,44,32,40,29,20,91,59,25,0.00,40.00,0,0,0,0.00
2012-3-26,56,42,31,39,35,30,96,77,44,0.00,40.00,0,0,0,0.00
2012-3-27,68,48,24,39,31,20,97,61,20,0.00,40.00,0,0,0,0.00
2012-3-28,67,53,26,37,28,11,98,46,13,0.00,40.00,0,0,0,0.00
2012-3-29,74,55,31,44,36,27,98,57,20,0.00,40.00,0,0,0,0.00
2012-3-30,80,39,32,41,-9,-100,98,37,18,0.00,40.00,0,-329,0,0.00
2012-3-31,72,9,31,37,-80,-100,98,8,16,0.00,40.00,0,-615,0,0.00
2012-4-1,30,0,30,28,-99,-100,91,1,91,0.00,40.00,0,-606,0,0.00
2012-4-2,62,21,30,28,-44,-100,91,19,17,0.00,40.00,0,-361,0,0.00
2012-4-3,73,54,32,28,20,11,62,29,14,0.00,40.00,0,0,0,0.00
2012-4-4,75,53,30,30,24,13,84,41,11,0.00,40.00,0,0,0,0.00
2012-4-5,63,45,26,37,25,-1,89,56,8,0.00,40.00,0,0,0,0.00
2012-4-6,66,44,25,33,16,4,95,46,10,0.00,40.00,0,0,0,0.00
2012-4-7,75,55,27,15,1,-15,42,17,3,0.00,40.00,0,0,0,0.00
2012-4-8,78,55,25,25,16,3,59,29,6,0.00,40.00,0,0,0,0.00
2012-4-9,81,57,27,23,18,5,78,32,7,0.00,40.00,0,0,0,0.00
2012-4-10,75,55,28,42,27,14,88,42,12,0.00,40.00,0,0,0,0.00
2012-4-11,46,41,37,41,36,32,96,83,67,0.00,40.00,0,0,0,0.00
2012-4-12,52,42,34,37,33,28,90,72,44,0.00,40.00,0,0,0,0.00
2012-4-13,48,38,32,40,34,28,97,84,46,0.00,40.00,0,0,0,0.00
2012-4-14,43,35,31,33,29,-100,96,84,66,0.00,40.00,0,0,0,0.00
2012-4-15,66,44,26,37,32,26,98,70,33,0.00,40.00,0,0,0,0.00
2012-4-16,72,54,29,40,32,24,98,54,19,0.00,40.00,0,0,0,0.00
2012-4-17,79,58,32,41,33,27,98,50,16,0.00,40.00,0,0,0,0.00
2012-4-18,78,60,32,39,32,22,98,46,13,0.00,40.00,0,0,0,0.00
2012-4-19,81,63,38,46,36,29,82,46,16,0.00,40.00,0,0,0,0.00
2012-4-20,85,71,49,43,33,26,78,27,15,0.00,40.00,0,0,0,0.00
2012-4-21,91,69,39,46,38,29,92,43,13,0.00,40.00,0,0,0,0.00
2012-4-22,87,68,41,51,43,34,94,51,15,0.00,40.00,0,0,0,0.00
2012-4-23,83,56,38,52,45,36,97,72,23,0.00,40.00,0,0,0,0.00
2012-4-24,81,58,37,45,37,23,98,57,12,0.00,40.00,0,0,0,0.00
2012-4-25,73,61,49,47,38,29,92,44,23,0.00,40.00,0,0,0,0.00
2012-4-26,58,48,41,47,42,39,98,82,58,0.00,40.00,0,0,0,0.00
2012-4-27,75,53,41,47,41,32,98,71,24,0.00,40.00,0,0,0,0.00
2012-4-28,81,60,36,43,33,-100,99,50,11,0.00,40.00,0,0,0,0.00
2012-4-29,79,62,36,41,30,20,92,41,14,0.00,40.00,0,0,0,0.00
2012-4-30,82,63,34,50,38,28,96,50,15,0.00,40.00,0,0,0,0.00
2012-5-1,76,56,40,46,41,34,99,62,22,0.00,40.00,0,0,0,0.00
2012-5-2,63,50,43,47,44,42,99,82,54,0.00,40.00,0,0,0,0.00
2012-5-3,74,55,40,45,43,39,97,69,28,0.00,40.00,0,0,0,0.00
2012-5-4,73,57,33,45,37,19,99,58,14,0.00,40.00,0,0,0,0.00
2012-5-11,82,62,31,45,36,24,89,47,13,0.00,40.00,0,0,0,0.00
2012-5-12,88,64,36,47,34,-100,94,47,11,0.00,40.00,0,0,0,0.00
2012-5-13,92,74,33,45,33,8,90,32,5,0.00,40.00,0,0,0,0.00
2012-5-14,91,72,35,44,35,19,81,33,8,0.00,40.00,0,0,0,0.00
2012-5-15,84,70,32,39,26,7,95,28,6,0.00,40.00,0,0,0,0.00
2012-5-16,93,78,36,45,30,15,85,26,6,0.00,40.00,0,0,0,0.00
2012-5-17,88,73,39,43,35,19,75,31,8,0.00,40.00,0,0,0,0.00
2012-5-18,74,60,45,45,37,16,96,46,20,0.00,40.00,0,0,0,0.00
2012-5-19,87,70,35,44,32,-100,98,36,9,0.00,40.00,0,0,0,0.00
2012-5-20,92,76,38,40,30,20,83,25,8,0.00,40.00,0,0,0,0.00
2012-5-21,94,81,40,41,30,23,81,21,8,0.00,40.00,5,2,13,0.00
2012-5-22,91,72,37,39,34,24,76,31,11,0.00,40.00,5,2,14,0.00
2012-5-23,80,66,48,47,38,24,74,41,14,0.00,40.00,7,3,20,0.00
2012-5-24,83,62,38,49,42,24,93,57,13,0.00,40.00,6,2,18,0.00
2012-5-25,63,50,37,47,40,28,96,72,42,0.00,40.00,8,5,26,0.00
2012-5-26,58,46,35,39,33,27,89,63,38,0.00,40.00,8,4,22,0.00
2012-5-27,76,54,31,41,30,21,96,53,13,0.00,40.00,8,2,22,0.00
2012-5-29,85,70,43,37,29,13,66,27,8,0.00,40.00,7,2,15,0.00
2012-5-30,82,72,34,45,35,26,78,31,14,0.00,40.00,5,2,12,0.00
2012-5-31,94,76,38,45,33,9,89,29,5,0.00,40.00,5,2,13,0.00
2012-6-1,96,81,41,37,23,13,66,18,6,0.00,40.00,5,2,17,0.00
2012-6-2,89,74,36,45,33,-100,70,28,13,0.00,40.00,5,2,14,0.00
2012-6-3,88,72,39,46,39,22,90,38,10,0.00,40.00,6,2,14,0.00
2012-6-4,84,70,42,50,45,39,94,47,22,0.00,40.00,6,2,17,0.00
2012-6-9,81,68,39,45,39,30,93,40,22,0.00,40.00,5,3,16,0.00
2012-6-10,86,72,41,45,32,13,89,30,7,0.00,40.00,6,2,15,0.00
2012-6-11,91,79,42,46,30,7,66,23,5,0.00,40.00,4,2,14,0.00
2012-6-12,92,82,43,46,36,25,74,23,10,0.00,40.00,4,2,13,0.00
2012-6-13,88,80,42,36,27,15,77,16,7,0.00,40.00,4,2,15,0.00
2012-6-14,89,75,35,41,32,21,65,25,9,0.00,40.00,5,2,15,0.00
2012-6-15,86,72,51,40,36,30,65,30,14,0.00,40.00,7,2,15,0.00
2012-6-16,85,71,59,33,24,-100,33,20,8,0.00,40.00,10,5,26,0.00
2012-6-17,99,82,49,34,22,12,41,13,6,0.00,40.00,7,4,20,0.00
2012-6-18,92,81,44,40,26,11,45,15,6,0.00,40.00,5,3,19,0.00
2012-6-19,84,76,47,34,22,6,42,15,6,0.00,40.00,8,4,20,0.00
2012-6-27,95,76,40,35,26,9,52,20,4,0.00,40.00,6,2,16,0.00
2012-6-28,95,79,46,35,26,15,50,18,6,0.00,40.00,5,2,14,0.00
2012-6-29,92,76,44,31,21,4,57,19,4,0.00,40.00,5,2,15,0.00
2012-6-30,92,78,39,36,21,7,50,17,5,0.00,40.00,5,2,15,0.00
2012-7-1,88,73,44,47,37,29,66,32,12,0.00,40.00,5,2,13,0.00
2012-7-2,92,72,39,50,42,33,81,41,13,0.00,40.00,4,1,14,0.00
2012-7-3,91,73,47,54,49,43,87,47,23,0.00,40.00,8,3,19,0.00
2012-7-6,92,73,45,49,42,34,87,41,15,0.00,40.00,4,2,16,0.00
2012-7-7,93,73,41,39,26,10,65,25,5,0.00,40.00,5,2,15,0.00
2012-7-8,97,77,41,33,26,20,48,19,7,0.00,40.00,4,2,14,0.00
2012-7-9,100,82,53,41,33,23,51,22,7,0.00,40.00,5,2,13,0.00
2012-7-10,102,84,54,40,36,29,53,23,8,0.00,40.00,5,2,14,0.00
2012-7-11,103,84,58,46,39,34,49,25,10,0.00,40.00,5,2,14,0.00
2012-7-12,86,74,66,63,52,44,76,48,26,0.00,40.00,10,2,23,0.00
2012-7-13,83,72,60,63,56,52,82,59,35,0.00,40.00,4,1,16,0.00
2012-7-14,90,74,56,62,54,45,99,56,25,0.00,40.00,5,1,15,0.00
2012-7-16,87,66,37,41,29,0,68,32,4,0.00,40.00,7,2,18,0.00
2012-7-17,84,66,37,39,32,22,67,34,11,0.00,40.00,5,2,16,0.00
2012-7-18,91,69,44,40,34,15,65,34,7,0.00,40.00,4,1,14,0.00
2012-7-19,97,76,48,43,38,30,63,31,12,0.00,40.00,5,2,18,0.00
2012-7-20,91,76,51,48,45,40,70,37,19,0.00,40.00,4,2,13,0.00
2012-7-21,97,79,53,50,47,43,71,37,18,0.00,40.00,5,1,17,0.00
2012-7-22,94,77,57,67,54,46,75,49,30,0.00,40.00,7,2,17,0.00
2012-7-24,95,77,51,50,34,18,77,30,7,0.00,40.00,4,2,22,0.00
2012-7-25,95,76,46,33,21,-2,55,19,3,0.00,40.00,5,2,13,0.00
2012-7-26,93,74,42,40,25,9,57,23,5,0.00,40.00,5,2,18,0.00
2012-7-27,93,73,40,40,25,4,63,26,4,0.00,40.00,4,2,15,0.00
2012-7-28,99,71,39,33,15,-21,59,24,1,0.00,40.00,5,2,17,0.00
2012-7-29,96,76,44,45,32,21,42,22,11,0.00,40.00,6,2,18,0.00
2012-7-30,86,72,59,61,52,31,72,50,29,0.00,40.00,7,2,19,0.00
2012-7-31,84,70,61,61,49,45,68,49,29,0.00,40.00,3,1,13,0.00
2012-8-1,88,68,54,54,46,42,74,48,20,0.00,40.00,3,0,9,0.00
2012-8-10,99,82,58,68,53,47,99,44,17,0.00,40.00,5,2,17,0.00
2012-8-11,96,80,58,64,56,52,99,47,23,0.00,40.00,6,2,15,0.00
2012-8-12,97,80,57,66,55,46,97,49,18,0.00,40.00,4,1,27,0.00
2012-8-13,94,83,58,63,50,43,99,39,19,0.00,40.00,7,2,18,0.00
2012-8-14,99,82,56,59,47,40,95,37,14,0.00,40.00,6,2,17,0.00
2012-8-15,95,78,53,54,48,40,81,41,15,0.00,40.00,4,1,14,0.00
2012-8-16,88,75,60,68,58,50,79,56,31,0.00,40.00,7,2,15,0.00
2012-8-17,87,72,63,66,62,57,99,72,43,0.00,40.00,6,1,18,0.00
2012-8-18,88,71,59,70,62,59,99,76,42,0.00,40.00,3,0,12,0.00
2012-8-19,94,72,58,70,61,57,99,74,32,0.00,40.00,5,1,17,0.00
2012-8-20,95,75,58,63,58,54,99,62,26,0.00,40.00,4,1,13,0.00
2012-8-21,93,74,57,61,58,54,99,64,30,0.00,40.00,4,1,13,0.00
2012-8-22,83,70,61,66,60,56,97,73,40,0.00,40.00,3,1,14,0.00
2012-8-28,94,75,50,47,42,38,75,37,15,0.00,40.00,5,1,15,0.00
2012-8-29,93,74,54,56,51,44,77,48,25,0.00,40.00,5,1,15,0.00
2012-8-30,85,68,56,64,57,52,98,72,35,0.00,40.00,7,2,21,0.00
2012-8-31,89,72,52,60,49,35,99,53,23,0.00,40.00,5,2,13,0.00
2012-9-1,88,71,47,36,30,26,58,26,11,0.00,40.00,5,2,18,0.00
2012-9-2,94,75,49,37,30,3,52,25,4,0.00,40.00,5,2,14,0.00
2012-9-3,96,76,50,45,37,27,64,29,12,0.00,40.00,5,1,15,0.00
2012-9-4,96,74,53,49,40,32,64,34,14,0.00,40.00,4,1,13,0.00
2012-9-5,95,71,59,53,45,38,59,40,24,0.00,40.00,4,1,12,0.00
2012-9-6,87,70,51,54,49,43,80,50,28,0.00,40.00,4,1,14,0.00
2012-9-7,91,71,51,54,50,47,91,54,24,0.00,40.00,4,1,11,0.00
2012-9-8,95,76,53,55,51,47,84,48,22,0.00,40.00,5,1,19,0.00
2012-9-9,85,73,59,64,58,53,97,61,39,0.00,40.00,7,2,15,0.00
2012-9-10,79,68,57,64,62,57,99,83,52,0.00,40.00,7,1,17,0.00
2012-9-11,81,68,60,63,61,58,99,81,47,0.00,40.00,4,1,11,0.00
2012-10-4,85,63,44,43,34,21,78,39,10,0.00,40.00,5,1,13,0.00
2012-10-5,87,64,35,39,35,28,84,39,13,0.00,40.00,4,1,12,0.00
2012-10-6,82,66,38,49,37,20,85,43,11,0.00,40.00,4,2,12,0.00
2012-10-7,82,63,41,46,43,36,93,53,21,0.00,40.00,4,1,11,0.00
2012-10-8,84,62,34,48,38,10,93,51,6,0.00,40.00,4,1,13,0.00
2012-10-9,81,61,33,40,33,9,95,43,7,0.00,40.00,5,1,11,0.00
2012-10-10,73,57,36,46,41,33,93,60,24,0.00,40.00,5,1,12,0.00
2012-10-11,57,46,32,43,39,31,98,79,49,0.00,40.00,4,1,14,0.00
2012-10-14,77,66,40,36,34,31,77,34,22,0.00,40.00,11,4,22,0.00
2012-10-15,86,71,40,35,29,23,72,25,11,0.00,40.00,5,2,15,0.00
2012-10-16,87,71,34,33,26,21,70,24,9,0.00,40.00,6,2,14,0.00
2012-10-17,84,72,39,34,30,25,60,23,12,0.00,40.00,6,2,22,0.00
2012-10-18,82,65,43,54,44,31,92,53,17,0.00,40.00,5,1,14,0.00
2012-10-19,87,71,34,44,36,26,92,33,11,0.00,40.00,4,2,11,0.00
2012-10-20,79,63,48,49,42,36,97,56,24,0.00,40.00,4,1,13,0.00
2012-10-21,67,54,48,49,46,44,96,76,47,0.00,40.00,4,2,12,0.00
2012-10-22,70,52,42,46,42,29,94,72,23,0.00,40.00,5,2,11,0.00
2012-10-23,64,50,36,43,38,28,95,70,26,0.00,40.00,5,2,13,0.00
2012-10-24,66,48,32,36,30,24,95,59,22,0.00,40.00,4,1,14,0.00
2012-10-25,74,59,27,25,17,13,85,24,10,0.00,40.00,6,2,16,0.00
2012-10-26,70,58,47,20,13,-16,31,18,3,0.00,40.00,11,4,29,0.00
2012-10-29,86,62,29,23,14,9,51,20,6,0.00,40.00,3,1,11,0.00
2012-10-30,85,62,29,21,15,7,51,21,5,0.00,40.00,5,1,12,0.00
2012-10-31,83,62,30,30,22,14,61,27,8,0.00,40.00,4,1,14,0.00
2012-11-1,76,59,27,33,24,13,71,33,9,0.00,40.00,4,1,12,0.00
2012-11-2,75,52,25,30,19,8,74,36,8,0.00,40.00,5,1,12,0.00
2012-11-3,75,60,29,26,20,14,67,27,11,0.00,40.00,5,2,14,0.00
2012-11-4,75,61,48,22,17,14,32,19,10,0.00,40.00,8,3,20,0.00
2012-11-5,80,65,44,24,19,13,39,18,8,0.00,40.00,6,3,16,0.00
2012-11-6,86,64,34,28,22,19,56,26,9,0.00,40.00,4,1,12,0.00
2012-11-7,80,60,31,33,25,19,70,33,11,0.00,40.00,6,2,11,0.00
2012-11-8,70,51,33,48,43,25,95,76,41,0.00,40.00,8,3,20,0.00
2012-11-9,46,40,35,45,34,27,95,79,61,0.00,40.00,9,7,28,0.00
2012-11-10,49,37,26,29,25,18,90,63,34,0.00,40.00,8,4,20,0.00
2012-11-11,51,35,16,23,10,-4,90,43,12,0.00,40.00,7,2,18,0.00
2012-11-12,68,43,27,-2,-12,-36,26,12,1,0.00,40.00,6,1,15,0.00
2012-11-13,69,52,30,11,2,-18,41,15,5,0.00,40.00,6,2,18,0.00
2012-11-14,73,50,26,13,6,-100,41,21,6,0.00,40.00,5,1,14,0.00
2012-11-15,62,48,34,22,12,7,40,25,11,0.00,40.00,3,0,9,0.00
2012-11-16,61,50,35,46,37,10,86,62,34,0.00,40.00,5,1,14,0.00
2012-11-17,58,49,42,46,44,39,97,83,64,0.00,40.00,4,1,17,0.00
2012-11-18,61,46,32,45,39,31,99,79,44,0.00,40.00,4,1,12,0.00
2012-11-19,70,46,25,37,31,24,97,63,24,0.00,40.00,4,1,11,0.00
2012-11-20,73,48,24,30,25,18,88,50,13,0.00,40.00,5,1,13,0.00
2012-11-21,70,48,23,28,22,17,79,43,17,0.00,40.00,5,1,14,0.00
2012-11-22,75,52,26,29,24,19,80,40,13,0.00,40.00,6,1,14,0.00
2012-11-23,76,58,34,25,19,13,45,24,9,0.00,40.00,6,2,15,0.00
2012-11-24,78,56,30,31,20,13,60,30,13,0.00,40.00,5,2,14,0.00
2012-11-25,72,52,29,29,23,19,72,38,17,0.00,40.00,5,1,14,0.00
2012-11-26,51,33,26,27,22,19,76,65,39,0.00,40.00,0,0,2,0.00
2012-11-27,68,48,27,29,22,19,80,42,16,0.00,40.00,6,2,15,0.00
2012-11-28,70,48,27,34,27,18,77,48,18,0.00,40.00,7,2,17,0.00
2012-11-29,61,50,38,52,46,29,99,86,60,0.00,40.00,4,1,16,0.00
2012-11-30,59,50,43,52,48,43,99,92,57,0.00,40.00,5,1,17,0.00
2012-12-1,61,49,40,49,45,39,99,86,50,0.00,40.00,5,1,16,0.00
2012-12-2,60,49,43,47,45,42,99,86,61,0.00,40.00,5,2,21,0.00
2012-12-3,62,49,33,49,44,32,99,85,47,0.00,40.00,4,2,14,0.00
2012-12-4,72,51,30,39,34,26,97,60,26,0.00,40.00,4,1,10,0.00
2012-12-5,74,49,25,27,23,14,85,46,10,0.00,40.00,4,1,13,0.00
2012-12-6,70,47,31,41,30,-100,95,62,31,0.00,40.00,3,0,10,0.00
2012-12-7,71,49,28,39,29,22,98,54,20,0.00,40.00,5,1,11,0.00
2012-12-8,55,32,21,23,19,16,81,66,24,0.00,40.00,0,0,3,0.00
2012-12-9,70,48,22,23,16,10,80,37,10,0.00,40.00,9,3,19,0.00
2012-12-10,69,50,28,23,20,17,63,34,16,0.00,40.00,5,1,16,0.00
2012-12-11,68,42,27,23,18,15,63,43,13,0.00,40.00,4,0,11,0.00
2012-12-12,61,43,23,35,24,13,78,53,20,0.00,40.00,8,3,19,0.00
2012-12-13,43,38,32,39,36,31,97,92,68,0.00,40.00,6,1,14,0.00
2012-12-14,43,34,32,34,30,26,96,86,64,0.00,40.00,7,2,17,0.00
2012-12-15,44,36,31,37,31,23,99,84,54,0.00,40.00,4,1,12,0.00
2012-12-16,49,40,32,43,37,29,99,89,67,0.00,40.00,4,2,15,0.00
2012-12-17,55,44,40,47,42,39,99,90,59,0.00,40.00,5,1,15,0.00
2012-12-18,45,40,27,42,36,19,97,87,71,0.00,40.00,8,4,23,0.00
2012-12-19,42,27,18,20,11,-5,92,57,17,0.00,40.00,6,0,20,0.00
2012-12-20,54,38,23,19,6,-2,75,30,13,0.00,40.00,7,2,14,0.00
2012-12-21,62,46,17,20,13,3,83,35,10,0.00,40.00,4,1,9,0.00
2012-12-22,59,40,18,32,18,2,97,52,10,0.00,40.00,5,1,14,0.00
2012-12-23,50,40,30,38,35,29,100,85,44,0.00,40.00,4,2,13,0.00
2012-12-24,52,41,31,45,39,31,100,92,61,0.00,40.00,11,3,32,0.00
2012-12-25,48,36,26,31,26,20,100,71,34,0.00,40.00,5,1,13,0.00
2012-12-26,40,35,27,39,33,26,100,92,81,0.00,40.00,7,3,22,0.00
2012-12-27,45,33,24,32,28,24,100,85,46,0.00,40.00,4,1,13,0.00
2012-12-28,48,33,23,24,19,13,100,62,29,0.00,40.00,7,1,15,0.00
2012-12-29,48,32,19,34,28,19,100,84,45,0.00,40.00,4,1,11,0.00
2012-12-30,36,32,24,34,30,23,100,94,77,0.00,40.00,3,0,8,0.00
2012-12-31,47,32,12,28,23,11,100,75,38,0.00,40.00,3,0,13,0.00
2013-1-1,49,32,20,28,16,5,100,58,25,0.00,40.00,7,2,18,0.00